Kona International At Keahole, HI

3:54 PM HST on September 16, 2014 (GMT -1000)
Bradshaw Army Air Field | Change Station
CLOSE
Current Station
Airport
Location: Bradshaw AFB,
Elevation: 6191 ft
Nearby Weather Stations
Active Advisory: High Surf Advisory Active Notice: Record Report

Elev 6191 ft 19.76 °N, 155.55 °W | Updated 58 minutes ago

Mostly Cloudy
Mostly Cloudy
70 °F
Feels Like 70 °F
N
9
Wind Variable Wind from WSW
Gusts 18 mph

Today
High -- | Low -- °F
--% Chance of Precip.
Yesterday
High -- | Low -- °F
Precip. -- in
6:11 AM 6:25 PM
Last Quarter, 40% visible
Pressure 29.90 in
Visibility 12.0 miles
Clouds Mostly Cloudy 5500 ft
Dew Point 56 °F
Humidity 62%
Rainfall 0.01 in
Snow Depth Not available.
UV 4 out of 12
Pollen Not available.
Air Quality Not available.
Flu Activity Not available.
METAR PHSF 170056Z AUTO 25008G16KT 12SM BKN055 21/14 A3026 RMK AO2 SLP124 T02110136

More Conditions Fewer Conditions

Pressure 29.90 in
Visibility 12.0 miles
Clouds Mostly Cloudy 5500 ft
Dew Point 56 °F
Humidity 62%
Rainfall 0.01 in
Snow Depth Not available.
UV 4 out of 12
Pollen Not available.
Air Quality Not available.
Flu Activity Not available.
METAR PHSF 170056Z AUTO 25008G16KT 12SM BKN055 21/14 A3026 RMK AO2 SLP124 T02110136

More Conditions Fewer Conditions

10-Day Weather Forecast

Almanac

Astronomy

Sep. 16, 2014 Rise Set
Actual Time 6:11 AM HST 6:25 PM HST
Civil Twilight 5:49 AM HST 6:47 PM HST
Nautical Twilight 5:24 AM HST 7:13 PM HST
Astronomical Twilight 4:58 AM HST 7:39 PM HST
Moon 12:04 AM HST (9/16) 1:25 PM HST (9/16)
Length of Visible Light 12h 57m
Length of Day
12h 13m
Tomorrow will be 1m 7s shorter.
Last Quarter, 40% of the Moon is Illuminated
Today
Last Quarter
Sep 24
New
Oct 1
First Quarter
Oct 8
Full
Oct 15
Last Quarter

Today's Extremes

State Highs State Lows

Community

WunderPhotos

Upload Photos

1,753,945 photos uploaded!

Nearby

Snow Depth

Station Depth Elevation
No new snow has been reported.

Earthquake Activity

City Distance Mag. Time & Date
No recent earthquake activity has been reported nearby.
Minimum magnitude displayed is 2.5.

Coastal Water Temperatures

Place Temperature
No Stations Reporting

Nearby Weather Stations